PWSweather.com
Personal Weather Stations
Station Observations
KMNGREYC2
Grey Cloud Island, Grey Cloud Island, MN 55071

Grey Cloud IslandGrey Cloud Island, MN 55071

Lat: 44.799333, Lon: -92.987851

Elevation: 700

Station Type: Davis VP2

www.jagielski.com/weather/conditions.htm

High Low Average
Temperature 36.7°F2.6°C 13.0°F-10.6°C 25.5°F-3.6°C
Dew Point 33.7°F0.9°C 4.4°F-15.3°C 17.6°F-8.0°C
Winds 22.0 mph 35.4 kmh Calm Calm 4.0 mph W6.4 kmh W
Wind Gusts 30.0 mph48.3 kmh -- 16.0 mph25.7 kmh
Humidity 96% 57% 72%
Pressure 30.23 in1023.7 mb 29.64 in1003.7 mb -
Precipitation 0.00 in0.0 mm - -
Hour Temp Dew Point Humidity Winds Wind Gusts Pressure Precip Precip Rate Daily Precip Total
12:00 AM 30.2°F-1.0°C 28.4°F-2.0°C 93% Calm Calm 1.0 mph1.6 kmh 29.65 in1004.1 mb 0.00 in0.0 mm 0.00 in0.0 mm 0.00 in0.0 mm
12:15 AM 30.1°F-1.1°C 28.6°F-1.9°C 94% 1.0 mph WSW1.6 kmh WSW 1.0 mph1.6 kmh 29.65 in1004.1 mb 0.00 in0.0 mm 0.00 in0.0 mm 0.00 in0.0 mm
12:30 AM 30.0°F-1.1°C 28.5°F-1.9°C 94% 1.0 mph WSW1.6 kmh WSW 1.0 mph1.6 kmh 29.65 in1004.1 mb 0.00 in0.0 mm 0.00 in0.0 mm 0.00 in0.0 mm
12:45 AM 30.0°F-1.1°C 28.5°F-1.9°C 94% Calm Calm 1.0 mph1.6 kmh 29.65 in1004.1 mb 0.00 in0.0 mm 0.00 in0.0 mm 0.00 in0.0 mm
01:00 AM 30.0°F-1.1°C 28.5°F-1.9°C 94% Calm Calm 2.0 mph3.2 kmh 29.65 in1004.1 mb 0.00 in0.0 mm 0.00 in0.0 mm 0.00 in0.0 mm
01:15 AM 30.1°F-1.1°C 28.6°F-1.9°C 94% Calm Calm 2.0 mph3.2 kmh 29.64 in1003.7 mb 0.00 in0.0 mm 0.00 in0.0 mm 0.00 in0.0 mm
01:30 AM 30.3°F-0.9°C 29.0°F-1.7°C 95% Calm Calm 2.0 mph3.2 kmh 29.64 in1003.7 mb 0.00 in0.0 mm 0.00 in0.0 mm 0.00 in0.0 mm
01:45 AM 30.5°F-0.8°C 29.2°F-1.6°C 95% 1.0 mph WSW1.6 kmh WSW 2.0 mph3.2 kmh 29.64 in1003.7 mb 0.00 in0.0 mm 0.00 in0.0 mm 0.00 in0.0 mm
02:00 AM 30.5°F-0.8°C 29.2°F-1.6°C 95% Calm Calm 2.0 mph3.2 kmh 29.65 in1004.1 mb 0.00 in0.0 mm 0.00 in0.0 mm 0.00 in0.0 mm
02:15 AM 30.5°F-0.8°C 29.2°F-1.6°C 95% Calm Calm -- 29.65 in1004.1 mb 0.00 in0.0 mm 0.00 in0.0 mm 0.00 in0.0 mm
02:30 AM 30.5°F-0.8°C 29.2°F-1.6°C 95% Calm Calm 1.0 mph1.6 kmh 29.65 in1004.1 mb 0.00 in0.0 mm 0.00 in0.0 mm 0.00 in0.0 mm
02:45 AM 30.6°F-0.8°C 29.3°F-1.5°C 95% Calm Calm -- 29.65 in1004.1 mb 0.00 in0.0 mm 0.00 in0.0 mm 0.00 in0.0 mm
03:00 AM 30.7°F-0.7°C 29.4°F-1.4°C 95% Calm Calm 3.0 mph4.8 kmh 29.66 in1004.4 mb 0.00 in0.0 mm 0.00 in0.0 mm 0.00 in0.0 mm
03:15 AM 31.1°F-0.5°C 30.1°F-1.1°C 96% Calm Calm 2.0 mph3.2 kmh 29.67 in1004.7 mb 0.00 in0.0 mm 0.00 in0.0 mm 0.00 in0.0 mm
03:30 AM 31.4°F-0.3°C 30.4°F-0.9°C 96% Calm Calm 4.0 mph6.4 kmh 29.67 in1004.7 mb 0.00 in0.0 mm 0.00 in0.0 mm 0.00 in0.0 mm
03:45 AM 31.9°F-0.1°C 30.9°F-0.6°C 96% 2.0 mph WSW3.2 kmh WSW 7.0 mph11.3 kmh 29.68 in1005.1 mb 0.00 in0.0 mm 0.00 in0.0 mm 0.00 in0.0 mm
04:00 AM 32.9°F0.5°C 31.9°F-0.1°C 96% 2.0 mph W3.2 kmh W 7.0 mph11.3 kmh 29.69 in1005.4 mb 0.00 in0.0 mm 0.00 in0.0 mm 0.00 in0.0 mm
04:15 AM 33.7°F0.9°C 32.7°F0.4°C 96% 3.0 mph SW4.8 kmh SW 7.0 mph11.3 kmh 29.69 in1005.4 mb 0.00 in0.0 mm 0.00 in0.0 mm 0.00 in0.0 mm
04:30 AM 34.2°F1.2°C 33.2°F0.7°C 96% Calm Calm 7.0 mph11.3 kmh 29.68 in1005.1 mb 0.00 in0.0 mm 0.00 in0.0 mm 0.00 in0.0 mm
04:45 AM 34.7°F1.5°C 33.7°F0.9°C 96% 2.0 mph NW3.2 kmh NW 7.0 mph11.3 kmh 29.70 in1005.8 mb 0.00 in0.0 mm 0.00 in0.0 mm 0.00 in0.0 mm
05:00 AM 35.0°F1.7°C 33.7°F0.9°C 95% 1.0 mph WNW1.6 kmh WNW 7.0 mph11.3 kmh 29.70 in1005.8 mb 0.00 in0.0 mm 0.00 in0.0 mm 0.00 in0.0 mm
05:15 AM 35.5°F1.9°C 33.7°F0.9°C 93% 2.0 mph W3.2 kmh W 10.0 mph16.1 kmh 29.70 in1005.8 mb 0.00 in0.0 mm 0.00 in0.0 mm 0.00 in0.0 mm
05:30 AM 36.0°F2.2°C 33.4°F0.8°C 90% 3.0 mph W4.8 kmh W 11.0 mph17.7 kmh 29.70 in1005.8 mb 0.00 in0.0 mm 0.00 in0.0 mm 0.00 in0.0 mm
05:45 AM 36.3°F2.4°C 32.5°F0.3°C 86% 1.0 mph WNW1.6 kmh WNW 9.0 mph14.5 kmh 29.70 in1005.8 mb 0.00 in0.0 mm 0.00 in0.0 mm 0.00 in0.0 mm
06:00 AM 36.5°F2.5°C 31.5°F-0.3°C 82% 2.0 mph WSW3.2 kmh WSW 14.0 mph22.5 kmh 29.71 in1006.1 mb 0.00 in0.0 mm 0.00 in0.0 mm 0.00 in0.0 mm
06:15 AM 36.7°F2.6°C 30.8°F-0.7°C 79% 3.0 mph WSW4.8 kmh WSW 9.0 mph14.5 kmh 29.73 in1006.8 mb 0.00 in0.0 mm 0.00 in0.0 mm 0.00 in0.0 mm
06:30 AM 36.4°F2.4°C 28.9°F-1.7°C 74% 4.0 mph W6.4 kmh W 16.0 mph25.7 kmh 29.74 in1007.1 mb 0.00 in0.0 mm 0.00 in0.0 mm 0.00 in0.0 mm
06:45 AM 35.9°F2.2°C 26.7°F-2.9°C 69% 7.0 mph W11.3 kmh W 20.0 mph32.2 kmh 29.75 in1007.5 mb 0.00 in0.0 mm 0.00 in0.0 mm 0.00 in0.0 mm
07:00 AM 34.8°F1.6°C 24.6°F-4.1°C 66% 2.0 mph NNE3.2 kmh NNE 24.0 mph38.6 kmh 29.76 in1007.8 mb 0.00 in0.0 mm 0.00 in0.0 mm 0.00 in0.0 mm
07:15 AM 34.1°F1.2°C 25.0°F-3.9°C 69% Calm Calm 12.0 mph19.3 kmh 29.78 in1008.5 mb 0.00 in0.0 mm 0.00 in0.0 mm 0.00 in0.0 mm
07:30 AM 33.6°F0.9°C 24.9°F-3.9°C 70% 3.0 mph WNW4.8 kmh WNW 14.0 mph22.5 kmh 29.78 in1008.5 mb 0.00 in0.0 mm 0.00 in0.0 mm 0.00 in0.0 mm
07:45 AM 33.2°F0.7°C 24.2°F-4.3°C 69% 7.0 mph W11.3 kmh W 20.0 mph32.2 kmh 29.79 in1008.8 mb 0.00 in0.0 mm 0.00 in0.0 mm 0.00 in0.0 mm
08:00 AM 32.8°F0.4°C 23.8°F-4.6°C 69% 2.0 mph W3.2 kmh W 20.0 mph32.2 kmh 29.80 in1009.1 mb 0.00 in0.0 mm 0.00 in0.0 mm 0.00 in0.0 mm
08:15 AM 32.4°F0.2°C 23.7°F-4.6°C 70% 5.0 mph NW8.0 kmh NW 14.0 mph22.5 kmh 29.80 in1009.1 mb 0.00 in0.0 mm 0.00 in0.0 mm 0.00 in0.0 mm
08:30 AM 32.1°F0.1°C 23.8°F-4.6°C 71% 2.0 mph W3.2 kmh W 14.0 mph22.5 kmh 29.80 in1009.1 mb 0.00 in0.0 mm 0.00 in0.0 mm 0.00 in0.0 mm
08:45 AM 31.9°F-0.1°C 23.6°F-4.7°C 71% 2.0 mph NW3.2 kmh NW 14.0 mph22.5 kmh 29.80 in1009.1 mb 0.00 in0.0 mm 0.00 in0.0 mm 0.00 in0.0 mm
09:00 AM 31.9°F-0.1°C 23.9°F-4.5°C 72% 2.0 mph WNW3.2 kmh WNW 17.0 mph27.4 kmh 29.81 in1009.5 mb 0.00 in0.0 mm 0.00 in0.0 mm 0.00 in0.0 mm
09:15 AM 32.1°F0.1°C 23.8°F-4.6°C 71% 3.0 mph W4.8 kmh W 16.0 mph25.7 kmh 29.81 in1009.5 mb 0.00 in0.0 mm 0.00 in0.0 mm 0.00 in0.0 mm
09:30 AM 32.1°F0.1°C 23.8°F-4.6°C 71% 5.0 mph W8.0 kmh W 16.0 mph25.7 kmh 29.81 in1009.5 mb 0.00 in0.0 mm 0.00 in0.0 mm 0.00 in0.0 mm
09:45 AM 32.1°F0.1°C 23.8°F-4.6°C 71% 2.0 mph WSW3.2 kmh WSW 12.0 mph19.3 kmh 29.83 in1010.2 mb 0.00 in0.0 mm 0.00 in0.0 mm 0.00 in0.0 mm
10:00 AM 32.2°F0.1°C 24.2°F-4.3°C 72% 5.0 mph WNW8.0 kmh WNW 16.0 mph25.7 kmh 29.83 in1010.2 mb 0.00 in0.0 mm 0.00 in0.0 mm 0.00 in0.0 mm
10:15 AM 32.3°F0.2°C 24.0°F-4.4°C 71% Calm Calm 17.0 mph27.4 kmh 29.83 in1010.2 mb 0.00 in0.0 mm 0.00 in0.0 mm 0.00 in0.0 mm
10:30 AM 32.2°F0.1°C 23.5°F-4.7°C 70% 13.0 mph NW20.9 kmh NW 17.0 mph27.4 kmh 29.83 in1010.2 mb 0.00 in0.0 mm 0.00 in0.0 mm 0.00 in0.0 mm
10:45 AM 31.9°F-0.1°C 23.2°F-4.9°C 70% 8.0 mph W12.9 kmh W 16.0 mph25.7 kmh 29.84 in1010.5 mb 0.00 in0.0 mm 0.00 in0.0 mm 0.00 in0.0 mm
11:00 AM 31.7°F-0.2°C 22.7°F-5.2°C 69% 1.0 mph WNW1.6 kmh WNW 17.0 mph27.4 kmh 29.84 in1010.5 mb 0.00 in0.0 mm 0.00 in0.0 mm 0.00 in0.0 mm
11:15 AM 31.6°F-0.2°C 21.9°F-5.6°C 67% 7.0 mph W11.3 kmh W 21.0 mph33.8 kmh 29.84 in1010.5 mb 0.00 in0.0 mm 0.00 in0.0 mm 0.00 in0.0 mm
11:30 AM 31.5°F-0.3°C 21.8°F-5.7°C 67% 2.0 mph WNW3.2 kmh WNW 21.0 mph33.8 kmh 29.85 in1010.8 mb 0.00 in0.0 mm 0.00 in0.0 mm 0.00 in0.0 mm
11:45 AM 30.9°F-0.6°C 20.2°F-6.6°C 64% 7.0 mph WSW11.3 kmh WSW 29.0 mph46.7 kmh 29.86 in1011.2 mb 0.00 in0.0 mm 0.00 in0.0 mm 0.00 in0.0 mm
12:00 PM 30.4°F-0.9°C 20.1°F-6.6°C 65% 4.0 mph W6.4 kmh W 29.0 mph46.7 kmh 29.87 in1011.5 mb 0.00 in0.0 mm 0.00 in0.0 mm 0.00 in0.0 mm
12:15 PM 30.2°F-1.0°C 19.5°F-6.9°C 64% 22.0 mph NNW35.4 kmh NNW 23.0 mph37.0 kmh 29.87 in1011.5 mb 0.00 in0.0 mm 0.00 in0.0 mm 0.00 in0.0 mm
12:30 PM 29.3°F-1.5°C 18.7°F-7.4°C 64% 13.0 mph WSW20.9 kmh WSW 23.0 mph37.0 kmh 29.87 in1011.5 mb 0.00 in0.0 mm 0.00 in0.0 mm 0.00 in0.0 mm
12:45 PM 28.4°F-2.0°C 17.4°F-8.1°C 63% 4.0 mph NW6.4 kmh NW 22.0 mph35.4 kmh 29.88 in1011.9 mb 0.00 in0.0 mm 0.00 in0.0 mm 0.00 in0.0 mm
01:00 PM 27.9°F-2.3°C 17.3°F-8.2°C 64% 7.0 mph NNW11.3 kmh NNW 22.0 mph35.4 kmh 29.89 in1012.2 mb 0.00 in0.0 mm 0.00 in0.0 mm 0.00 in0.0 mm
01:15 PM 27.2°F-2.7°C 15.2°F-9.3°C 60% 6.0 mph WNW9.7 kmh WNW 27.0 mph43.5 kmh 29.88 in1011.9 mb 0.00 in0.0 mm 0.00 in0.0 mm 0.00 in0.0 mm
01:30 PM 26.6°F-3.0°C 15.0°F-9.4°C 61% 5.0 mph NW8.0 kmh NW 27.0 mph43.5 kmh 29.89 in1012.2 mb 0.00 in0.0 mm 0.00 in0.0 mm 0.00 in0.0 mm
01:45 PM 26.6°F-3.0°C 15.4°F-9.2°C 62% 2.0 mph SW3.2 kmh SW 18.0 mph29.0 kmh 29.90 in1012.5 mb 0.00 in0.0 mm 0.00 in0.0 mm 0.00 in0.0 mm
02:00 PM 26.2°F-3.2°C 13.5°F-10.3°C 58% 3.0 mph WSW4.8 kmh WSW 24.0 mph38.6 kmh 29.91 in1012.9 mb 0.00 in0.0 mm 0.00 in0.0 mm 0.00 in0.0 mm
02:15 PM 25.1°F-3.8°C 12.8°F-10.7°C 59% 6.0 mph WNW9.7 kmh WNW 22.0 mph35.4 kmh 29.92 in1013.2 mb 0.00 in0.0 mm 0.00 in0.0 mm 0.00 in0.0 mm
02:30 PM 24.1°F-4.4°C 12.2°F-11.0°C 60% 10.0 mph NW16.1 kmh NW 22.0 mph35.4 kmh 29.93 in1013.5 mb 0.00 in0.0 mm 0.00 in0.0 mm 0.00 in0.0 mm
02:45 PM 23.2°F-4.9°C 12.5°F-10.8°C 63% 5.0 mph WNW8.0 kmh WNW 20.0 mph32.2 kmh 29.94 in1013.9 mb 0.00 in0.0 mm 0.00 in0.0 mm 0.00 in0.0 mm
03:00 PM 23.0°F-5.0°C 11.9°F-11.2°C 62% 5.0 mph NW8.0 kmh NW 21.0 mph33.8 kmh 29.96 in1014.6 mb 0.00 in0.0 mm 0.00 in0.0 mm 0.00 in0.0 mm
03:15 PM 22.7°F-5.2°C 11.7°F-11.3°C 62% 9.0 mph WNW14.5 kmh WNW 18.0 mph29.0 kmh 29.97 in1014.9 mb 0.00 in0.0 mm 0.00 in0.0 mm 0.00 in0.0 mm
03:30 PM 23.1°F-4.9°C 10.9°F-11.7°C 59% 13.0 mph WNW20.9 kmh WNW 26.0 mph41.8 kmh 29.98 in1015.2 mb 0.00 in0.0 mm 0.00 in0.0 mm 0.00 in0.0 mm
03:45 PM 23.3°F-4.8°C 11.1°F-11.6°C 59% 9.0 mph NNW14.5 kmh NNW 17.0 mph27.4 kmh 29.99 in1015.6 mb 0.00 in0.0 mm 0.00 in0.0 mm 0.00 in0.0 mm
04:00 PM 22.5°F-5.3°C 9.6°F-12.4°C 57% 7.0 mph W11.3 kmh W 23.0 mph37.0 kmh 30.01 in1016.3 mb 0.00 in0.0 mm 0.00 in0.0 mm 0.00 in0.0 mm
04:15 PM 21.6°F-5.8°C 9.5°F-12.5°C 59% 9.0 mph NW14.5 kmh NW 30.0 mph48.3 kmh 30.02 in1016.6 mb 0.00 in0.0 mm 0.00 in0.0 mm 0.00 in0.0 mm
04:30 PM 20.8°F-6.2°C 9.5°F-12.5°C 61% 13.0 mph W20.9 kmh W 30.0 mph48.3 kmh 30.03 in1016.9 mb 0.00 in0.0 mm 0.00 in0.0 mm 0.00 in0.0 mm
04:45 PM 19.9°F-6.7°C 8.6°F-13.0°C 61% 12.0 mph WNW19.3 kmh WNW 17.0 mph27.4 kmh 30.04 in1017.3 mb 0.00 in0.0 mm 0.00 in0.0 mm 0.00 in0.0 mm
05:00 PM 19.8°F-6.8°C 9.3°F-12.6°C 63% 1.0 mph N1.6 kmh N 17.0 mph27.4 kmh 30.05 in1017.6 mb 0.00 in0.0 mm 0.00 in0.0 mm 0.00 in0.0 mm
05:15 PM 19.5°F-6.9°C 8.6°F-13.0°C 62% 7.0 mph WNW11.3 kmh WNW 22.0 mph35.4 kmh 30.06 in1017.9 mb 0.00 in0.0 mm 0.00 in0.0 mm 0.00 in0.0 mm
05:30 PM 18.7°F-7.4°C 7.9°F-13.4°C 62% 8.0 mph W12.9 kmh W 22.0 mph35.4 kmh 30.07 in1018.3 mb 0.00 in0.0 mm 0.00 in0.0 mm 0.00 in0.0 mm
05:45 PM 18.1°F-7.7°C 7.3°F-13.7°C 62% 10.0 mph WNW16.1 kmh WNW 25.0 mph40.2 kmh 30.07 in1018.3 mb 0.00 in0.0 mm 0.00 in0.0 mm 0.00 in0.0 mm
06:00 PM 17.7°F-7.9°C 7.3°F-13.7°C 63% 3.0 mph W4.8 kmh W 25.0 mph40.2 kmh 30.08 in1018.6 mb 0.00 in0.0 mm 0.00 in0.0 mm 0.00 in0.0 mm
06:15 PM 17.4°F-8.1°C 7.3°F-13.7°C 64% 6.0 mph WNW9.7 kmh WNW 20.0 mph32.2 kmh 30.09 in1019.0 mb 0.00 in0.0 mm 0.00 in0.0 mm 0.00 in0.0 mm
06:30 PM 17.2°F-8.2°C 7.1°F-13.8°C 64% 11.0 mph W17.7 kmh W 20.0 mph32.2 kmh 30.09 in1019.0 mb 0.00 in0.0 mm 0.00 in0.0 mm 0.00 in0.0 mm
06:45 PM 17.1°F-8.3°C 7.4°F-13.7°C 65% 5.0 mph NW8.0 kmh NW 17.0 mph27.4 kmh 30.10 in1019.3 mb 0.00 in0.0 mm 0.00 in0.0 mm 0.00 in0.0 mm
07:00 PM 16.9°F-8.4°C 7.2°F-13.8°C 65% 1.0 mph NW1.6 kmh NW 17.0 mph27.4 kmh 30.10 in1019.3 mb 0.00 in0.0 mm 0.00 in0.0 mm 0.00 in0.0 mm
07:15 PM 16.8°F-8.4°C 7.4°F-13.7°C 66% 6.0 mph WNW9.7 kmh WNW 13.0 mph20.9 kmh 30.12 in1020.0 mb 0.00 in0.0 mm 0.00 in0.0 mm 0.00 in0.0 mm
07:30 PM 16.8°F-8.4°C 7.4°F-13.7°C 66% 14.0 mph NW22.5 kmh NW 20.0 mph32.2 kmh 30.13 in1020.3 mb 0.00 in0.0 mm 0.00 in0.0 mm 0.00 in0.0 mm
07:45 PM 16.7°F-8.5°C 7.3°F-13.7°C 66% 5.0 mph W8.0 kmh W 22.0 mph35.4 kmh 30.14 in1020.7 mb 0.00 in0.0 mm 0.00 in0.0 mm 0.00 in0.0 mm
08:00 PM 16.5°F-8.6°C 7.1°F-13.8°C 66% 6.0 mph NW9.7 kmh NW 22.0 mph35.4 kmh 30.15 in1021.0 mb 0.00 in0.0 mm 0.00 in0.0 mm 0.00 in0.0 mm
08:15 PM 16.3°F-8.7°C 6.6°F-14.1°C 65% 2.0 mph W3.2 kmh W 21.0 mph33.8 kmh 30.15 in1021.0 mb 0.00 in0.0 mm 0.00 in0.0 mm 0.00 in0.0 mm
08:30 PM 16.2°F-8.8°C 6.9°F-13.9°C 66% 2.0 mph WNW3.2 kmh WNW 21.0 mph33.8 kmh 30.15 in1021.0 mb 0.00 in0.0 mm 0.00 in0.0 mm 0.00 in0.0 mm
08:45 PM 16.0°F-8.9°C 6.7°F-14.1°C 66% 6.0 mph WNW9.7 kmh WNW 15.0 mph24.1 kmh 30.16 in1021.3 mb 0.00 in0.0 mm 0.00 in0.0 mm 0.00 in0.0 mm
09:00 PM 15.9°F-8.9°C 6.6°F-14.1°C 66% 1.0 mph WNW1.6 kmh WNW 15.0 mph24.1 kmh 30.16 in1021.3 mb 0.00 in0.0 mm 0.00 in0.0 mm 0.00 in0.0 mm
09:15 PM 15.6°F-9.1°C 6.3°F-14.3°C 66% 7.0 mph NW11.3 kmh NW 18.0 mph29.0 kmh 30.17 in1021.7 mb 0.00 in0.0 mm 0.00 in0.0 mm 0.00 in0.0 mm
09:30 PM 15.6°F-9.1°C 6.6°F-14.1°C 67% 5.0 mph W8.0 kmh W 21.0 mph33.8 kmh 30.17 in1021.7 mb 0.00 in0.0 mm 0.00 in0.0 mm 0.00 in0.0 mm
09:45 PM 15.5°F-9.2°C 6.5°F-14.2°C 67% 1.0 mph NW1.6 kmh NW 13.0 mph20.9 kmh 30.17 in1021.7 mb 0.00 in0.0 mm 0.00 in0.0 mm 0.00 in0.0 mm
10:00 PM 15.3°F-9.3°C 6.0°F-14.4°C 66% 9.0 mph NW14.5 kmh NW 13.0 mph20.9 kmh 30.18 in1022.0 mb 0.00 in0.0 mm 0.00 in0.0 mm 0.00 in0.0 mm
10:15 PM 15.0°F-9.4°C 6.0°F-14.4°C 67% 3.0 mph WNW4.8 kmh WNW 13.0 mph20.9 kmh 30.19 in1022.4 mb 0.00 in0.0 mm 0.00 in0.0 mm 0.00 in0.0 mm
10:30 PM 14.8°F-9.6°C 5.8°F-14.6°C 67% 1.0 mph W1.6 kmh W 14.0 mph22.5 kmh 30.20 in1022.7 mb 0.00 in0.0 mm 0.00 in0.0 mm 0.00 in0.0 mm
10:45 PM 14.6°F-9.7°C 5.7°F-14.6°C 67% 9.0 mph WNW14.5 kmh WNW 18.0 mph29.0 kmh 30.20 in1022.7 mb 0.00 in0.0 mm 0.00 in0.0 mm 0.00 in0.0 mm
11:00 PM 14.4°F-9.8°C 5.5°F-14.7°C 67% 6.0 mph W9.7 kmh W 18.0 mph29.0 kmh 30.20 in1022.7 mb 0.00 in0.0 mm 0.00 in0.0 mm 0.00 in0.0 mm
11:15 PM 14.2°F-9.9°C 5.6°F-14.7°C 68% 1.0 mph WSW1.6 kmh WSW 14.0 mph22.5 kmh 30.20 in1022.7 mb 0.00 in0.0 mm 0.00 in0.0 mm 0.00 in0.0 mm
11:30 PM 14.0°F-10.0°C 5.4°F-14.8°C 68% 1.0 mph WNW1.6 kmh WNW 18.0 mph29.0 kmh 30.21 in1023.0 mb 0.00 in0.0 mm 0.00 in0.0 mm 0.00 in0.0 mm
11:45 PM 13.7°F-10.2°C 5.1°F-14.9°C 68% 3.0 mph WNW4.8 kmh WNW 14.0 mph22.5 kmh 30.22 in1023.4 mb 0.00 in0.0 mm 0.00 in0.0 mm 0.00 in0.0 mm